Terminal Aerodrome Forecast
Issued by NWS

Home | Current Version | Previous Version | Text Only | Print | Product List | Glossary On
Versions: 1 2 3 4 5 6 7 8 9 10 11 12 13 14 15
000
FTUS46 KSEW 181700
TAFPAE
TAF
KPAE 181725Z 1818/1918 19007KT 3SM BR BKN008 BKN020 OVC050
      TEMPO 1818/1820 1SM BR BKN003
     FM182000 18005KT P6SM VCSH BKN020 OVC050
     FM190700 19005KT P6SM BKN015 OVC035
     FM191200 18005KT P6SM VCSH OVC012=

USA.gov is the U.S. government's official web portal to all federal, state and local government web resources and services.